createdAt,value
2022-10-12T00:01:39.007Z,3.93
2022-10-12T00:04:08.412Z,4.73
2022-10-12T00:06:36.703Z,4.67
2022-10-12T00:09:04.854Z,4.57
2022-10-12T00:11:32.899Z,4.07
2022-10-12T00:14:01.316Z,4.83
2022-10-12T00:16:31.446Z,5.13
2022-10-12T00:19:00.116Z,5.20
2022-10-12T00:21:30.731Z,4.83
2022-10-12T00:23:58.818Z,4.53
2022-10-12T00:26:26.972Z,5.03
2022-10-12T00:28:58.766Z,4.23
2022-10-12T00:31:27.119Z,3.70
2022-10-12T00:33:55.435Z,5.00
2022-10-12T00:36:24.202Z,4.30
2022-10-12T00:38:54.651Z,3.97
2022-10-12T00:41:24.171Z,4.83
2022-10-12T00:43:57.592Z,4.10
2022-10-12T00:46:30.353Z,3.53
2022-10-12T00:48:59.557Z,3.97
2022-10-12T00:51:27.685Z,4.20
2022-10-12T00:53:58.201Z,4.40
2022-10-12T00:56:27.383Z,3.87
2022-10-12T00:58:55.602Z,4.13
2022-10-12T01:01:24.191Z,3.80
2022-10-12T01:03:52.287Z,4.00
2022-10-12T01:06:20.291Z,4.70
2022-10-12T01:08:48.338Z,5.33
2022-10-12T01:11:17.791Z,4.50
2022-10-12T01:13:46.192Z,4.07
2022-10-12T01:16:17.595Z,4.50
2022-10-12T01:18:47.086Z,4.63
2022-10-12T01:21:18.927Z,4.50
2022-10-12T01:24:08.644Z,4.13
2022-10-12T01:26:55.045Z,4.03
2022-10-12T01:29:31.712Z,3.90
2022-10-12T01:32:02.664Z,3.90
2022-10-12T01:34:32.819Z,3.60
2022-10-12T01:37:03.790Z,3.57
2022-10-12T01:39:33.928Z,3.50
2022-10-12T01:42:04.440Z,2.97
2022-10-12T01:44:32.725Z,3.23
2022-10-12T01:47:02.562Z,3.40
2022-10-12T01:49:31.905Z,3.07
2022-10-12T01:52:16.840Z,2.80
2022-10-12T01:54:57.905Z,3.00
2022-10-12T01:57:29.940Z,2.93
2022-10-12T02:00:02.924Z,3.37
2022-10-12T02:02:36.754Z,3.37
2022-10-12T02:05:07.208Z,2.93
2022-10-12T02:07:40.417Z,3.23
2022-10-12T02:10:10.602Z,2.70
2022-10-12T02:12:38.587Z,3.30
2022-10-12T02:15:07.475Z,3.23
2022-10-12T02:17:37.047Z,3.17
2022-10-12T02:20:05.759Z,3.33
2022-10-12T02:22:35.712Z,3.20
2022-10-12T02:25:05.196Z,3.07
2022-10-12T02:27:33.228Z,3.90
2022-10-12T02:30:01.186Z,4.50
2022-10-12T02:32:30.948Z,4.30
2022-10-12T02:35:03.739Z,4.10
2022-10-12T02:37:33.982Z,5.47
2022-10-12T02:40:05.603Z,4.00
2022-10-12T02:42:58.454Z,4.63
2022-10-12T02:45:24.196Z,3.80
2022-10-12T02:47:52.868Z,4.07
2022-10-12T02:50:22.801Z,4.33
2022-10-12T02:52:50.856Z,3.57
2022-10-12T02:55:18.871Z,3.80
2022-10-12T02:57:46.827Z,4.50
2022-10-12T03:00:17.254Z,4.33
2022-10-12T03:02:45.548Z,3.20
2022-10-12T03:05:20.946Z,4.20
2022-10-12T03:07:50.403Z,3.60
2022-10-12T03:10:18.429Z,3.40
2022-10-12T03:12:49.982Z,3.57
2022-10-12T03:15:18.448Z,3.37
2022-10-12T03:17:46.496Z,3.90
2022-10-12T03:20:14.570Z,3.60
2022-10-12T03:22:42.887Z,3.90
2022-10-12T03:25:12.203Z,3.33
2022-10-12T03:27:40.657Z,3.50
2022-10-12T03:30:11.440Z,4.03
2022-10-12T03:32:39.980Z,3.73
2022-10-12T03:35:08.889Z,3.67
2022-10-12T03:37:37.139Z,3.27
2022-10-12T03:40:06.161Z,3.87
2022-10-12T03:42:35.591Z,3.60
2022-10-12T03:45:03.595Z,4.20
2022-10-12T03:47:31.548Z,3.77
2022-10-12T03:49:59.849Z,3.17
2022-10-12T03:52:28.547Z,3.27
2022-10-12T03:54:56.626Z,4.10
2022-10-12T03:57:24.684Z,4.13
2022-10-12T03:59:54.064Z,3.67
2022-10-12T04:02:22.453Z,3.47
2022-10-12T04:04:50.408Z,3.60
2022-10-12T04:07:18.442Z,3.33
2022-10-12T04:09:46.467Z,3.30
2022-10-12T04:12:14.524Z,3.40
2022-10-12T04:14:42.540Z,3.40
2022-10-12T04:17:12.537Z,3.17
2022-10-12T04:19:40.619Z,3.20
2022-10-12T04:22:08.677Z,3.10
2022-10-12T04:24:36.626Z,3.10
2022-10-12T04:27:04.807Z,3.57
2022-10-12T04:29:32.794Z,2.97
2022-10-12T04:32:01.013Z,3.37
2022-10-12T04:34:30.499Z,3.57
2022-10-12T04:36:58.535Z,3.40
2022-10-12T04:39:26.566Z,3.17
2022-10-12T04:41:54.884Z,3.70
2022-10-12T04:44:22.953Z,4.40
2022-10-12T04:46:50.901Z,3.90
2022-10-12T04:49:19.036Z,4.00
2022-10-12T04:51:48.555Z,4.47
2022-10-12T04:54:16.545Z,4.47
2022-10-12T04:56:47.889Z,3.53
2022-10-12T04:59:16.347Z,4.17
2022-10-12T05:01:44.374Z,3.77
2022-10-12T05:04:12.385Z,3.77
2022-10-12T05:06:40.354Z,3.97
2022-10-12T05:09:13.220Z,3.90
2022-10-12T05:11:44.516Z,4.03
2022-10-12T05:14:12.725Z,3.87
2022-10-12T05:16:40.808Z,4.20
2022-10-12T05:19:08.929Z,3.70
2022-10-12T05:21:36.928Z,3.87
2022-10-12T05:24:05.454Z,4.23
2022-10-12T05:26:34.907Z,4.00
2022-10-12T05:29:02.912Z,5.30
2022-10-12T05:31:30.910Z,4.43
2022-10-12T05:33:58.994Z,4.83
2022-10-12T05:36:27.237Z,4.07
2022-10-12T05:38:55.442Z,4.47
2022-10-12T05:41:23.395Z,4.23
2022-10-12T05:43:53.361Z,4.40
2022-10-12T05:46:21.534Z,4.80
2022-10-12T05:48:49.557Z,5.20
2022-10-12T05:51:17.822Z,4.90
2022-10-12T05:53:45.792Z,4.97
2022-10-12T05:56:13.765Z,5.27
2022-10-12T05:58:42.316Z,5.13
2022-10-12T06:01:12.688Z,4.87
2022-10-12T06:03:41.004Z,4.67
2022-10-12T06:06:09.173Z,4.30
2022-10-12T06:08:37.195Z,5.00
2022-10-12T06:11:05.169Z,5.40
2022-10-12T06:13:33.125Z,4.80
2022-10-12T06:16:01.090Z,5.63
2022-10-12T06:18:30.712Z,6.63
2022-10-12T06:23:46.704Z,7.30
2022-10-12T06:26:14.677Z,6.93
2022-10-12T06:28:43.547Z,6.13
2022-10-12T06:31:12.014Z,6.17
2022-10-12T06:33:41.394Z,7.10
2022-10-12T06:36:09.543Z,6.97
2022-10-12T06:38:37.501Z,7.50
2022-10-12T06:41:05.620Z,7.20
2022-10-12T06:43:33.626Z,7.17
2022-10-12T06:46:02.250Z,7.50
2022-10-12T06:48:30.309Z,7.80
2022-10-12T06:50:59.667Z,8.80
2022-10-12T06:53:31.052Z,10.20
2022-10-12T06:55:59.117Z,10.63
2022-10-12T06:58:27.425Z,11.20
2022-10-12T07:00:55.425Z,9.77
2022-10-12T07:03:23.419Z,9.87
2022-10-12T07:05:54.072Z,8.63
2022-10-12T07:08:23.500Z,9.37
2022-10-12T07:10:53.999Z,8.77
2022-10-12T07:13:25.483Z,7.87
2022-10-12T07:15:53.472Z,8.40
2022-10-12T07:18:21.568Z,8.10
2022-10-12T07:20:49.528Z,8.10
2022-10-12T07:23:17.601Z,7.93
2022-10-12T07:25:50.801Z,8.93
2022-10-12T07:28:18.900Z,7.53
2022-10-12T07:30:47.022Z,7.10
2022-10-12T07:33:15.062Z,6.13
2022-10-12T07:36:03.264Z,6.43
2022-10-12T07:38:31.198Z,5.30
2022-10-12T07:41:01.713Z,6.67
2022-10-12T07:43:29.978Z,6.83
2022-10-12T07:45:58.115Z,7.30
2022-10-12T07:48:26.363Z,7.53
2022-10-12T07:50:54.525Z,5.37
2022-10-12T07:53:22.851Z,6.53
2022-10-12T07:55:51.692Z,5.47
2022-10-12T07:58:21.069Z,5.20
2022-10-12T08:00:49.120Z,5.10
2022-10-12T08:03:17.375Z,4.97
2022-10-12T08:05:45.421Z,4.50
2022-10-12T08:08:14.284Z,4.00
2022-10-12T08:10:42.263Z,3.27
2022-10-12T08:13:10.233Z,3.23
2022-10-12T08:15:39.599Z,3.70
2022-10-12T08:18:07.548Z,3.83
2022-10-12T08:20:35.801Z,3.80
2022-10-12T08:23:03.899Z,4.50
2022-10-12T08:25:31.956Z,4.87
2022-10-12T08:28:00.151Z,3.47
2022-10-12T08:30:28.282Z,4.80
2022-10-12T08:32:57.787Z,4.30
2022-10-12T08:35:26.221Z,3.73
2022-10-12T08:37:55.367Z,3.67
2022-10-12T08:40:27.287Z,3.50
2022-10-12T08:42:57.732Z,2.80
2022-10-12T08:45:39.260Z,2.60
2022-10-12T08:48:10.970Z,3.17
2022-10-12T08:50:41.615Z,2.67
2022-10-12T08:53:12.478Z,2.43
2022-10-12T08:55:42.250Z,2.47
2022-10-12T08:58:14.883Z,2.30
2022-10-12T09:00:42.979Z,2.70
2022-10-12T09:03:19.327Z,2.40
2022-10-12T09:05:50.206Z,2.63
2022-10-12T09:08:25.537Z,2.90
2022-10-12T09:10:55.883Z,3.23
2022-10-12T09:13:33.717Z,2.63
2022-10-12T09:16:03.575Z,2.70
2022-10-12T09:18:40.829Z,2.80
2022-10-12T09:21:11.544Z,3.40
2022-10-12T09:23:40.196Z,3.10
2022-10-12T09:26:14.488Z,3.23
2022-10-12T09:28:44.690Z,2.70
2022-10-12T09:31:40.438Z,3.20
2022-10-12T09:34:11.408Z,2.87
2022-10-12T09:36:42.109Z,3.10
2022-10-12T09:39:13.776Z,3.10
2022-10-12T09:41:42.675Z,3.43
2022-10-12T09:44:14.730Z,4.60
2022-10-12T09:46:44.938Z,7.43
2022-10-12T09:49:14.461Z,4.87
2022-10-12T09:51:42.529Z,3.67
2022-10-12T09:54:18.135Z,3.40
2022-10-12T09:56:49.884Z,2.80
2022-10-12T09:59:28.294Z,3.27
2022-10-12T10:02:00.679Z,3.17
2022-10-12T10:04:30.427Z,3.40
2022-10-12T10:07:13.426Z,3.70
2022-10-12T10:09:41.574Z,3.40
2022-10-12T10:12:22.214Z,3.20
2022-10-12T10:14:50.297Z,2.90
2022-10-12T10:17:19.314Z,3.23
2022-10-12T10:19:52.479Z,3.10
2022-10-12T10:22:20.695Z,2.90
2022-10-12T10:24:52.221Z,3.30
2022-10-12T10:27:32.288Z,2.57
2022-10-12T10:30:40.801Z,3.10
2022-10-12T10:33:14.872Z,3.40
2022-10-12T10:35:54.751Z,3.20
2022-10-12T10:38:23.033Z,3.40
2022-10-12T10:40:51.969Z,3.10
2022-10-12T10:43:22.046Z,3.00
2022-10-12T10:45:50.918Z,3.13
2022-10-12T10:48:20.699Z,3.00
2022-10-12T10:50:53.834Z,3.20
2022-10-12T10:53:23.006Z,2.87
2022-10-12T10:55:52.571Z,3.20
2022-10-12T10:58:27.376Z,3.50
2022-10-12T11:00:57.582Z,2.77
2022-10-12T11:03:27.763Z,2.87
2022-10-12T11:05:58.301Z,3.30
2022-10-12T11:08:26.981Z,2.50
2022-10-12T11:10:56.702Z,3.13
2022-10-12T11:13:25.911Z,3.10
2022-10-12T11:15:55.247Z,3.70
2022-10-12T11:18:25.043Z,2.97
2022-10-12T11:20:55.566Z,2.87
2022-10-12T11:23:30.128Z,2.87
2022-10-12T11:26:09.800Z,2.70
2022-10-12T11:28:39.215Z,3.57
2022-10-12T11:31:08.193Z,3.07
2022-10-12T11:33:38.617Z,2.80
2022-10-12T11:36:08.748Z,3.00
2022-10-12T11:38:39.758Z,2.73
2022-10-12T11:43:58.728Z,2.80
2022-10-12T11:46:31.959Z,2.63
2022-10-12T11:49:02.209Z,3.00
2022-10-12T11:51:30.632Z,3.00
2022-10-12T11:54:02.088Z,3.00
2022-10-12T11:56:32.322Z,3.40
2022-10-12T11:59:02.735Z,3.70
2022-10-12T12:01:55.293Z,3.10
2022-10-12T12:04:46.059Z,3.87
2022-10-12T12:07:39.935Z,2.83
2022-10-12T12:10:41.522Z,3.30
2022-10-12T12:13:19.356Z,3.20
2022-10-12T12:16:34.976Z,3.00
2022-10-12T12:19:37.084Z,3.17
2022-10-12T12:22:16.551Z,3.03
2022-10-12T12:24:53.246Z,3.03
2022-10-12T12:27:29.431Z,3.13
2022-10-12T12:29:59.253Z,3.13
2022-10-12T12:32:28.123Z,3.40
2022-10-12T12:35:00.475Z,2.80
2022-10-12T12:37:30.398Z,2.90
2022-10-12T12:39:59.297Z,2.90
2022-10-12T12:42:32.224Z,2.63
2022-10-12T12:45:17.985Z,3.00
2022-10-12T12:47:46.668Z,3.67
2022-10-12T12:50:29.831Z,2.43
2022-10-12T12:53:02.588Z,2.80
2022-10-12T12:55:44.204Z,2.63
2022-10-12T12:58:31.508Z,3.00
2022-10-12T13:01:12.525Z,2.80
2022-10-12T13:04:02.199Z,2.80
2022-10-12T13:06:55.870Z,2.80
2022-10-12T13:09:45.176Z,2.70
2022-10-12T13:12:51.774Z,2.97
2022-10-12T13:15:28.474Z,2.60
2022-10-12T13:18:28.576Z,2.53
2022-10-12T13:21:06.979Z,3.47
2022-10-12T13:23:35.067Z,3.30
2022-10-12T13:26:05.309Z,3.00
2022-10-12T13:28:35.507Z,2.77
2022-10-12T13:31:04.839Z,2.90
2022-10-12T13:33:39.337Z,3.20
2022-10-12T13:36:13.273Z,3.07
2022-10-12T13:38:41.599Z,2.90
2022-10-12T13:41:10.663Z,3.27
2022-10-12T13:43:43.875Z,3.33
2022-10-12T13:46:13.069Z,3.27
2022-10-12T13:48:59.360Z,2.97
2022-10-12T13:51:28.999Z,2.87
2022-10-12T13:53:57.090Z,2.83
2022-10-12T13:56:26.102Z,3.40
2022-10-12T13:58:56.724Z,2.90
2022-10-12T14:01:25.071Z,2.67
2022-10-12T14:03:54.586Z,2.70
2022-10-12T14:06:28.232Z,2.53
2022-10-12T14:08:57.258Z,3.10
2022-10-12T14:11:25.363Z,3.00
2022-10-12T14:13:53.929Z,2.90
2022-10-12T14:16:22.094Z,3.10
2022-10-12T14:18:50.973Z,3.23
2022-10-12T14:21:23.669Z,2.43
2022-10-12T14:23:53.123Z,3.23
2022-10-12T14:26:33.357Z,2.70
2022-10-12T14:29:37.585Z,2.70
2022-10-12T14:32:07.230Z,3.00
2022-10-12T14:34:43.966Z,3.00
2022-10-12T14:37:25.300Z,3.10
2022-10-12T14:39:59.857Z,3.13
2022-10-12T14:42:34.866Z,3.00
2022-10-12T14:45:04.657Z,3.33
2022-10-12T14:47:33.410Z,2.87
2022-10-12T14:50:07.823Z,2.97
2022-10-12T14:52:38.991Z,3.10
2022-10-12T14:55:08.028Z,3.37
2022-10-12T14:57:36.213Z,3.63
2022-10-12T15:00:04.651Z,3.73
2022-10-12T15:02:33.494Z,4.23
2022-10-12T15:05:01.718Z,3.53
2022-10-12T15:07:31.631Z,3.53
2022-10-12T15:10:01.749Z,3.97
2022-10-12T15:12:30.590Z,3.23
2022-10-12T15:15:00.565Z,3.10
2022-10-12T15:17:28.743Z,3.23
2022-10-12T15:19:56.974Z,3.50
2022-10-12T15:22:26.287Z,3.50
2022-10-12T15:24:56.110Z,2.93
2022-10-12T15:27:40.155Z,3.73
2022-10-12T15:30:11.028Z,3.07
2022-10-12T15:32:39.268Z,3.10
2022-10-12T15:35:19.625Z,3.40
2022-10-12T15:37:47.777Z,3.60
2022-10-12T15:40:18.470Z,3.30
2022-10-12T15:42:54.047Z,3.40
2022-10-12T15:45:24.295Z,3.33
2022-10-12T15:47:52.691Z,3.37
2022-10-12T15:50:22.910Z,3.47
2022-10-12T15:52:51.299Z,3.90
2022-10-12T15:55:20.826Z,4.10
2022-10-12T15:57:51.561Z,3.47
2022-10-12T16:00:20.742Z,3.87
2022-10-12T16:02:51.208Z,3.77
2022-10-12T16:05:21.385Z,4.37
2022-10-12T16:07:49.700Z,3.80
2022-10-12T16:10:21.114Z,3.50
2022-10-12T16:12:51.728Z,3.50
2022-10-12T16:15:46.433Z,3.03
2022-10-12T16:18:20.918Z,3.60
2022-10-12T16:20:53.836Z,4.20
2022-10-12T16:23:24.020Z,4.03
2022-10-12T16:25:52.329Z,4.70
2022-10-12T16:28:22.512Z,5.40
2022-10-12T16:30:50.828Z,4.40
2022-10-12T16:33:19.166Z,4.60
2022-10-12T16:35:47.823Z,6.10
2022-10-12T16:38:16.184Z,4.50
2022-10-12T16:40:44.473Z,4.27
2022-10-12T16:43:12.786Z,3.90
2022-10-12T16:45:42.448Z,3.70
2022-10-12T16:48:10.703Z,3.80
2022-10-12T16:50:40.898Z,3.93
2022-10-12T16:53:09.505Z,4.93
2022-10-12T16:55:41.049Z,4.77
2022-10-12T16:58:09.664Z,4.37
2022-10-12T17:00:40.242Z,4.50
2022-10-12T17:03:14.151Z,4.23
2022-10-12T17:05:42.826Z,4.50
2022-10-12T17:08:15.341Z,4.50
2022-10-12T17:10:44.556Z,3.50
2022-10-12T17:13:13.672Z,3.97
2022-10-12T17:15:46.100Z,4.37
2022-10-12T17:19:13.981Z,4.13
2022-10-12T17:25:41.232Z,6.23
2022-10-12T17:28:09.831Z,8.53
2022-10-12T17:30:39.337Z,8.83
2022-10-12T17:33:08.080Z,9.60
2022-10-12T17:35:41.789Z,9.13
2022-10-12T17:38:10.379Z,8.03
2022-10-12T17:40:41.926Z,8.10
2022-10-12T17:43:10.700Z,6.50
2022-10-12T17:45:40.931Z,6.47
2022-10-12T17:48:09.503Z,6.60
2022-10-12T17:50:40.065Z,6.70
2022-10-12T17:53:10.044Z,6.10
2022-10-12T17:55:50.429Z,6.63
2022-10-12T17:58:20.377Z,6.50
2022-10-12T18:00:48.881Z,6.93
2022-10-12T18:03:20.100Z,5.87
2022-10-12T18:05:52.135Z,6.60
2022-10-12T18:08:21.324Z,6.80
2022-10-12T18:10:50.536Z,6.40
2022-10-12T18:13:20.422Z,6.07
2022-10-12T18:15:49.254Z,6.50
2022-10-12T18:18:17.813Z,6.67
2022-10-12T18:20:46.582Z,6.23
2022-10-12T18:23:15.426Z,6.67
2022-10-12T18:25:44.047Z,6.40
2022-10-12T18:28:12.993Z,6.27
2022-10-12T18:30:48.650Z,5.60
2022-10-12T18:33:17.468Z,5.70
2022-10-12T18:35:46.031Z,5.80
2022-10-12T18:38:14.531Z,5.93
2022-10-12T18:40:43.327Z,6.43
2022-10-12T18:43:12.065Z,5.83
2022-10-12T18:45:43.024Z,5.63
2022-10-12T18:48:13.194Z,5.63
2022-10-12T18:50:42.084Z,5.67
2022-10-12T18:53:10.865Z,5.60
2022-10-12T18:55:39.740Z,5.47
2022-10-12T18:58:08.534Z,5.63
2022-10-12T19:00:37.380Z,6.27
2022-10-12T19:03:06.218Z,6.50
2022-10-12T19:05:36.322Z,5.93
2022-10-12T19:08:04.979Z,5.57
2022-10-12T19:10:33.905Z,5.40
2022-10-12T19:13:02.810Z,5.27
2022-10-12T19:15:31.501Z,5.97
2022-10-12T19:18:00.251Z,6.43
2022-10-12T19:20:29.060Z,6.20
2022-10-12T19:22:59.823Z,5.63
2022-10-12T19:25:28.763Z,5.77
2022-10-12T19:27:57.648Z,6.00
2022-10-12T19:30:26.977Z,6.20
2022-10-12T19:32:55.699Z,5.70
2022-10-12T19:35:25.289Z,6.20
2022-10-12T19:37:54.213Z,6.63
2022-10-12T19:40:24.612Z,6.30
2022-10-12T19:42:53.518Z,6.00
2022-10-12T19:45:22.441Z,6.60
2022-10-12T19:47:51.149Z,6.50
2022-10-12T19:50:20.424Z,6.63
2022-10-12T19:52:49.135Z,6.17
2022-10-12T19:55:18.846Z,6.30
2022-10-12T19:57:50.858Z,6.20
2022-10-12T20:00:20.296Z,5.97
2022-10-12T20:02:48.993Z,6.33
2022-10-12T20:05:18.408Z,6.23
2022-10-12T20:07:47.395Z,6.93
2022-10-12T20:10:16.282Z,6.80
2022-10-12T20:12:45.104Z,6.60
2022-10-12T20:15:15.297Z,7.03
2022-10-12T20:17:44.187Z,6.87
2022-10-12T20:20:13.164Z,7.30
2022-10-12T20:22:41.796Z,7.27
2022-10-12T20:25:10.506Z,7.23
2022-10-12T20:27:39.056Z,7.63
2022-10-12T20:30:09.021Z,6.60
2022-10-12T20:32:39.231Z,6.63
2022-10-12T20:35:08.594Z,7.43
2022-10-12T20:37:37.152Z,7.13
2022-10-12T20:40:06.733Z,7.77
2022-10-12T20:42:35.624Z,6.93
2022-10-12T20:45:05.074Z,7.37
2022-10-12T20:47:33.972Z,7.10
2022-10-12T20:50:04.316Z,6.63
2022-10-12T20:52:32.898Z,7.03
2022-10-12T20:55:01.667Z,7.30
2022-10-12T20:57:30.599Z,6.73
2022-10-12T20:59:59.462Z,7.23
2022-10-12T21:02:28.100Z,6.70
2022-10-12T21:04:56.866Z,7.60
2022-10-12T21:07:26.954Z,7.70
2022-10-12T21:09:56.023Z,7.40
2022-10-12T21:12:24.692Z,7.07
2022-10-12T21:14:53.454Z,7.50
2022-10-12T21:17:22.236Z,7.23
2022-10-12T21:19:52.740Z,7.10
2022-10-12T21:22:21.647Z,7.30
2022-10-12T21:24:52.639Z,6.90
2022-10-12T21:27:21.372Z,7.33
2022-10-12T21:29:50.276Z,6.67
2022-10-12T21:32:19.249Z,7.20
2022-10-12T21:34:49.943Z,7.07
2022-10-12T21:37:18.808Z,7.30
2022-10-12T21:39:52.073Z,7.17
2022-10-12T21:42:24.567Z,7.13
2022-10-12T21:44:53.659Z,7.17
2022-10-12T21:47:22.638Z,7.90
2022-10-12T21:49:51.730Z,7.13
2022-10-12T21:52:21.375Z,7.83
2022-10-12T21:54:50.352Z,7.73
2022-10-12T21:57:19.263Z,6.60
2022-10-12T21:59:51.197Z,7.30
2022-10-12T22:02:20.238Z,7.93
2022-10-12T22:04:49.664Z,7.33
2022-10-12T22:07:18.470Z,7.43
2022-10-12T22:09:47.571Z,7.00
2022-10-12T22:12:16.651Z,7.30
2022-10-12T22:14:45.956Z,7.23
2022-10-12T22:17:16.166Z,8.17
2022-10-12T22:19:47.191Z,7.40
2022-10-12T22:22:16.212Z,7.37
2022-10-12T22:24:45.137Z,9.47
2022-10-12T22:27:14.043Z,7.50
2022-10-12T22:29:42.793Z,7.10
2022-10-12T22:32:11.620Z,7.63
2022-10-12T22:34:42.201Z,7.43
2022-10-12T22:37:11.264Z,8.70
2022-10-12T22:39:39.979Z,7.93
2022-10-12T22:42:08.662Z,7.73
2022-10-12T22:44:37.397Z,8.07
2022-10-12T22:47:06.760Z,7.37
2022-10-12T22:49:35.621Z,7.87
2022-10-12T22:52:06.057Z,8.33
2022-10-12T22:54:36.811Z,8.20
2022-10-12T22:57:05.678Z,7.90
2022-10-12T22:59:36.799Z,8.03
2022-10-12T23:02:05.839Z,8.53
2022-10-12T23:04:36.215Z,8.50
2022-10-12T23:07:06.369Z,8.13
2022-10-12T23:09:35.349Z,8.37
2022-10-12T23:12:04.135Z,7.93
2022-10-12T23:14:33.341Z,9.00
2022-10-12T23:17:02.132Z,7.43
2022-10-12T23:19:30.925Z,8.03
2022-10-12T23:21:59.718Z,8.10
2022-10-12T23:24:30.299Z,8.10
2022-10-12T23:26:59.518Z,8.57
2022-10-12T23:29:28.704Z,8.70
2022-10-12T23:31:57.493Z,8.53
2022-10-12T23:34:26.361Z,9.00
2022-10-12T23:36:55.575Z,8.23
2022-10-12T23:39:24.495Z,8.23
2022-10-12T23:41:54.986Z,9.40
2022-10-12T23:44:23.778Z,7.97
2022-10-12T23:46:52.711Z,8.43
2022-10-12T23:49:21.623Z,7.43
2022-10-12T23:51:53.861Z,8.73
2022-10-12T23:54:22.648Z,8.27
2022-10-12T23:56:52.351Z,9.03
2022-10-12T23:59:22.970Z,8.43
